Time;durP1;ratioP1;P1;durP2;ratioP2;P2;SDS_P1;SDS_P2;PMS_P1;PMS_P2;Temp;Humidity;BMP_temperature;BMP_pressure;BME280_temperature;BME280_humidity;BME280_pressure;Samples;Min_cycle;Max_cycle;Signal;HPM_P1;HPM_P2
2021/03/31 00:01:19;;;;;;;6.18;1.75;;;;;;;;;;4960576;28;20034;-59
2021/03/31 00:03:44;;;;;;;6.70;1.23;;;;;;;;;;4955266;28;20480;-57
2021/03/31 00:06:10;;;;;;;3.30;1.00;;;;;;;;;;4946631;28;20047;-57
2021/03/31 00:08:36;;;;;;;2.88;0.80;;;;;;;;;;4955001;28;20491;-58
2021/03/31 00:11:02;;;;;;;5.30;1.30;;;;;;;;;;4960123;28;20046;-57
2021/03/31 00:13:28;;;;;;;3.83;1.10;;;;;;;;;;4961492;28;20038;-57
2021/03/31 00:15:54;;;;;;;4.80;1.00;;;;;;;;;;4961216;28;20030;-58
2021/03/31 00:18:21;;;;;;;4.20;1.20;;;;;;;;;;4960195;28;20035;-58
2021/03/31 00:20:47;;;;;;;5.95;1.30;;;;;;;;;;4961533;28;20134;-57
2021/03/31 00:23:14;;;;;;;4.60;1.10;;;;;;;;;;4962797;28;20118;-57
2021/03/31 00:25:40;;;;;;;3.90;1.27;;;;;;;;;;4958789;28;20158;-58
2021/03/31 00:28:06;;;;;;;5.18;1.42;;;;;;;;;;4962724;28;20078;-58
2021/03/31 00:30:32;;;;;;;6.30;1.00;;;;;;;;;;4961881;28;20046;-58
2021/03/31 00:32:59;;;;;;;4.10;1.05;;;;;;;;;;4963944;28;20041;-58
2021/03/31 00:35:25;;;;;;;6.32;1.23;;;;;;;;;;4964693;28;20034;-58
2021/03/31 00:37:51;;;;;;;4.13;1.15;;;;;;;;;;4966304;28;20041;-57
2021/03/31 00:40:18;;;;;;;3.90;1.10;;;;;;;;;;4965491;28;20480;-58
2021/03/31 00:42:44;;;;;;;5.68;1.13;;;;;;;;;;4965097;28;20109;-56
2021/03/31 00:45:10;;;;;;;4.55;1.08;;;;;;;;;;4966989;28;20104;-56
2021/03/31 00:47:36;;;;;;;7.13;1.10;;;;;;;;;;4966295;28;20050;-57
2021/03/31 00:50:03;;;;;;;5.45;1.30;;;;;;;;;;4967159;28;20602;-58
2021/03/31 00:52:29;;;;;;;3.97;1.08;;;;;;;;;;4970592;28;20975;-56
2021/03/31 00:54:55;;;;;;;10.52;1.20;;;;;;;;;;4967227;28;20046;-56
2021/03/31 00:57:21;;;;;;;4.20;0.90;;;;;;;;;;4967227;28;20059;-56
2021/03/31 00:59:47;;;;;;;6.72;1.17;;;;;;;;;;4967523;28;20101;-58
2021/03/31 01:02:13;;;;;;;4.57;1.35;;;;;;;;;;4965936;28;20531;-59
2021/03/31 01:04:39;;;;;;;8.88;1.20;;;;;;;;;;4966809;28;20058;-56
2021/03/31 01:07:04;;;;;;;6.97;1.20;;;;;;;;;;4964182;28;20043;-57
2021/03/31 01:09:51;;;;;;;5.30;1.17;;;;;;;;;;4981845;28;21006;-59
2021/03/31 01:12:17;;;;;;;4.63;1.20;;;;;;;;;;4985095;28;20042;-57
2021/03/31 01:14:43;;;;;;;4.65;1.15;;;;;;;;;;4985612;28;20038;-59
2021/03/31 01:17:10;;;;;;;8.43;1.10;;;;;;;;;;4983494;28;20064;-56
2021/03/31 01:19:45;;;;;;;5.90;0.95;;;;;;;;;;4985728;28;20647;-57
2021/03/31 01:22:23;;;;;;;4.38;1.00;;;;;;;;;;4984470;28;20069;-60
2021/03/31 01:24:49;;;;;;;4.80;1.10;;;;;;;;;;4984880;28;20131;-58
2021/03/31 01:27:31;;;;;;;7.72;1.20;;;;;;;;;;4985466;28;20125;-55
2021/03/31 01:30:03;;;;;;;3.95;1.20;;;;;;;;;;4983542;28;20144;-57
2021/03/31 01:32:47;;;;;;;4.55;1.05;;;;;;;;;;4982818;28;20087;-57
2021/03/31 01:35:16;;;;;;;5.65;0.98;;;;;;;;;;4983000;28;20065;-57
2021/03/31 01:37:48;;;;;;;5.95;1.08;;;;;;;;;;4985632;28;20116;-57
2021/03/31 01:40:15;;;;;;;3.00;0.90;;;;;;;;;;4984139;28;20110;-58
2021/03/31 01:42:44;;;;;;;6.63;1.15;;;;;;;;;;4964262;28;20125;-58
2021/03/31 01:45:10;;;;;;;7.03;1.20;;;;;;;;;;4982864;28;20057;-57
2021/03/31 01:47:38;;;;;;;4.45;1.27;;;;;;;;;;4973250;28;20038;-58
2021/03/31 01:50:04;;;;;;;4.65;1.20;;;;;;;;;;4980932;28;20787;-54
2021/03/31 01:52:30;;;;;;;3.63;0.88;;;;;;;;;;4980001;28;20038;-58
2021/03/31 01:54:56;;;;;;;4.88;1.23;;;;;;;;;;4981745;28;20061;-55
2021/03/31 01:57:23;;;;;;;3.92;1.00;;;;;;;;;;4982061;28;20061;-58
2021/03/31 01:59:50;;;;;;;4.25;1.20;;;;;;;;;;4984592;28;20057;-58
2021/03/31 02:02:16;;;;;;;2.70;1.00;;;;;;;;;;4980344;28;20056;-57
2021/03/31 02:04:41;;;;;;;3.33;1.10;;;;;;;;;;4981328;28;20045;-57
2021/03/31 02:07:10;;;;;;;2.83;1.10;;;;;;;;;;4982043;28;20046;-56
2021/03/31 02:09:38;;;;;;;4.65;1.13;;;;;;;;;;4981381;28;20061;-53
2021/03/31 02:12:04;;;;;;;9.02;1.25;;;;;;;;;;4971302;28;20128;-57
2021/03/31 02:14:32;;;;;;;2.58;0.98;;;;;;;;;;4980429;28;20078;-58
2021/03/31 02:16:58;;;;;;;4.65;1.08;;;;;;;;;;4979923;28;20043;-57
2021/03/31 02:19:24;;;;;;;4.80;1.27;;;;;;;;;;4969847;28;20049;-58
2021/03/31 02:21:50;;;;;;;5.28;1.20;;;;;;;;;;4978239;28;20039;-57
2021/03/31 02:24:20;;;;;;;3.10;1.00;;;;;;;;;;4978193;28;20938;-57
2021/03/31 02:26:46;;;;;;;4.05;1.02;;;;;;;;;;4976062;28;20054;-57
2021/03/31 02:29:12;;;;;;;4.60;1.75;;;;;;;;;;4962076;28;20285;-57
2021/03/31 02:31:39;;;;;;;3.40;1.00;;;;;;;;;;4962520;28;20126;-58
2021/03/31 02:34:05;;;;;;;4.40;1.17;;;;;;;;;;4962415;28;20035;-57
2021/03/31 02:36:32;;;;;;;3.83;1.30;;;;;;;;;;4962557;28;20039;-55
2021/03/31 02:38:58;;;;;;;4.45;1.05;;;;;;;;;;4992271;28;20602;-56
2021/03/31 02:41:24;;;;;;;6.43;1.17;;;;;;;;;;4961170;28;20142;-55
2021/03/31 02:43:51;;;;;;;5.68;1.05;;;;;;;;;;4962838;28;20045;-57
2021/03/31 02:46:18;;;;;;;4.93;1.00;;;;;;;;;;4960640;28;20053;-57
2021/03/31 02:48:44;;;;;;;3.90;1.15;;;;;;;;;;4961057;28;20039;-57
2021/03/31 02:51:11;;;;;;;2.92;1.00;;;;;;;;;;4960852;28;20088;-57
2021/03/31 02:53:37;;;;;;;5.53;1.30;;;;;;;;;;4960313;28;20058;-57
2021/03/31 02:56:03;;;;;;;7.60;1.55;;;;;;;;;;4960930;28;20050;-55
2021/03/31 02:58:30;;;;;;;4.28;1.30;;;;;;;;;;4960215;28;20043;-57
2021/03/31 03:00:56;;;;;;;5.90;1.20;;;;;;;;;;4961267;28;20134;-57
2021/03/31 03:03:22;;;;;;;4.57;0.93;;;;;;;;;;4960392;28;20073;-57
2021/03/31 03:05:48;;;;;;;3.78;1.02;;;;;;;;;;4961137;28;20157;-56
2021/03/31 03:08:14;;;;;;;6.05;1.38;;;;;;;;;;4961943;28;20074;-57
2021/03/31 03:10:39;;;;;;;4.22;0.95;;;;;;;;;;4960998;28;20463;-56
2021/03/31 03:13:07;;;;;;;4.65;1.58;;;;;;;;;;4962527;28;20042;-56
2021/03/31 03:15:33;;;;;;;5.43;1.13;;;;;;;;;;4994287;28;20590;-57
2021/03/31 03:17:59;;;;;;;3.92;1.15;;;;;;;;;;4962339;28;20161;-57
2021/03/31 03:20:25;;;;;;;3.70;0.90;;;;;;;;;;4961162;28;20093;-56
2021/03/31 03:22:53;;;;;;;4.68;1.08;;;;;;;;;;4962402;28;20129;-57
2021/03/31 03:25:21;;;;;;;3.45;1.23;;;;;;;;;;4962047;28;20459;-57
2021/03/31 03:27:47;;;;;;;4.78;1.10;;;;;;;;;;4960569;28;20046;-57
2021/03/31 03:30:15;;;;;;;5.10;0.80;;;;;;;;;;4960490;28;20038;-55
2021/03/31 03:32:41;;;;;;;3.83;1.23;;;;;;;;;;4960222;28;20150;-56
2021/03/31 03:35:17;;;;;;;5.65;1.10;;;;;;;;;;4961114;28;20042;-55
2021/03/31 03:37:43;;;;;;;6.85;1.15;;;;;;;;;;4959337;28;20424;-56
2021/03/31 03:40:10;;;;;;;6.90;1.00;;;;;;;;;;4959013;28;20041;-56
2021/03/31 03:42:36;;;;;;;4.65;1.10;;;;;;;;;;4958271;28;20186;-52
2021/03/31 03:45:03;;;;;;;3.92;1.30;;;;;;;;;;4960632;28;20118;-54
2021/03/31 03:47:29;;;;;;;4.97;1.15;;;;;;;;;;4959378;28;20062;-56
2021/03/31 03:49:55;;;;;;;5.68;1.30;;;;;;;;;;4959055;28;20051;-56
2021/03/31 03:52:22;;;;;;;5.22;0.80;;;;;;;;;;4960322;28;20039;-53
2021/03/31 03:54:52;;;;;;;7.93;1.15;;;;;;;;;;4960158;28;20035;-55
2021/03/31 03:57:25;;;;;;;3.58;1.13;;;;;;;;;;4960357;28;20054;-54
2021/03/31 03:59:51;;;;;;;4.05;0.90;;;;;;;;;;4960326;28;20042;-57
2021/03/31 04:02:17;;;;;;;3.75;0.98;;;;;;;;;;4962320;28;20464;-56
2021/03/31 04:04:42;;;;;;;3.03;1.10;;;;;;;;;;4959571;28;20127;-56
2021/03/31 04:07:08;;;;;;;4.97;1.00;;;;;;;;;;4963573;28;20133;-54
2021/03/31 04:09:35;;;;;;;3.42;1.17;;;;;;;;;;4961971;28;20043;-56
2021/03/31 04:12:02;;;;;;;3.88;1.08;;;;;;;;;;4963738;28;20043;-53
2021/03/31 04:14:27;;;;;;;3.75;1.08;;;;;;;;;;4963541;28;20038;-56
2021/03/31 04:16:55;;;;;;;5.15;1.30;;;;;;;;;;4964536;28;20053;-56
2021/03/31 04:19:23;;;;;;;4.00;0.95;;;;;;;;;;4964622;28;20045;-55
2021/03/31 04:21:49;;;;;;;3.22;0.98;;;;;;;;;;4963315;28;20042;-55
2021/03/31 04:24:15;;;;;;;2.80;0.90;;;;;;;;;;4957408;28;20035;-53
2021/03/31 04:26:42;;;;;;;7.35;1.38;;;;;;;;;;4964979;28;20901;-55
2021/03/31 04:29:08;;;;;;;3.05;0.90;;;;;;;;;;4965492;28;20038;-55
2021/03/31 04:31:36;;;;;;;3.90;1.13;;;;;;;;;;4964555;28;20062;-55
2021/03/31 04:34:02;;;;;;;4.65;1.30;;;;;;;;;;4967524;28;20035;-55
2021/03/31 04:36:29;;;;;;;4.18;1.20;;;;;;;;;;4973965;28;20046;-54
2021/03/31 04:38:54;;;;;;;3.03;0.90;;;;;;;;;;4979287;28;20050;-54
2021/03/31 04:41:20;;;;;;;6.32;1.45;;;;;;;;;;4968143;28;20034;-54
2021/03/31 04:43:46;;;;;;;5.57;1.30;;;;;;;;;;4967094;28;20081;-56
2021/03/31 04:46:12;;;;;;;4.65;1.33;;;;;;;;;;4966921;28;20058;-53
2021/03/31 04:48:38;;;;;;;3.40;1.23;;;;;;;;;;4964355;28;20052;-56
2021/03/31 04:51:04;;;;;;;2.88;0.90;;;;;;;;;;4964981;28;20057;-56
2021/03/31 04:53:30;;;;;;;5.47;1.10;;;;;;;;;;4964434;28;20034;-56
2021/03/31 04:55:56;;;;;;;7.07;0.90;;;;;;;;;;4966386;28;20085;-55
2021/03/31 04:58:22;;;;;;;2.70;0.82;;;;;;;;;;4965259;28;20054;-55
2021/03/31 05:00:48;;;;;;;4.53;1.00;;;;;;;;;;4962498;28;20038;-56
2021/03/31 05:03:15;;;;;;;5.65;1.35;;;;;;;;;;4992747;28;20050;-55
2021/03/31 05:05:40;;;;;;;3.33;0.90;;;;;;;;;;4964452;28;20523;-56
2021/03/31 05:08:07;;;;;;;2.38;0.80;;;;;;;;;;4964144;28;20042;-55
2021/03/31 05:10:33;;;;;;;3.58;1.30;;;;;;;;;;4996070;28;20583;-55
2021/03/31 05:12:58;;;;;;;4.85;1.20;;;;;;;;;;4967551;28;20153;-57
2021/03/31 05:15:24;;;;;;;4.38;1.05;;;;;;;;;;4964020;28;20054;-56
2021/03/31 05:17:50;;;;;;;3.42;1.08;;;;;;;;;;4964961;28;20042;-57
2021/03/31 05:20:17;;;;;;;3.85;1.00;;;;;;;;;;4964418;28;20073;-55
2021/03/31 05:22:43;;;;;;;4.75;1.00;;;;;;;;;;4965284;28;20051;-55
2021/03/31 05:25:10;;;;;;;2.75;1.08;;;;;;;;;;4964833;28;20059;-53
2021/03/31 05:27:36;;;;;;;3.38;1.10;;;;;;;;;;4964556;28;20130;-56
2021/03/31 05:30:06;;;;;;;3.60;1.00;;;;;;;;;;4964296;28;20129;-54
2021/03/31 05:32:32;;;;;;;3.83;1.00;;;;;;;;;;4964421;28;20042;-54
2021/03/31 05:34:58;;;;;;;3.88;1.10;;;;;;;;;;4962950;28;20445;-53
2021/03/31 05:37:23;;;;;;;3.97;1.20;;;;;;;;;;4965397;28;22061;-54
2021/03/31 05:39:49;;;;;;;3.00;1.10;;;;;;;;;;4964995;28;20039;-53
2021/03/31 05:42:16;;;;;;;3.70;1.35;;;;;;;;;;4964064;28;20661;-54
2021/03/31 05:44:42;;;;;;;2.90;0.90;;;;;;;;;;4964424;28;20125;-55
2021/03/31 05:47:11;;;;;;;2.83;0.90;;;;;;;;;;4967942;28;20043;-56
2021/03/31 05:49:38;;;;;;;2.97;1.05;;;;;;;;;;4965144;28;20140;-55
2021/03/31 05:52:04;;;;;;;3.08;0.90;;;;;;;;;;4964096;28;20043;-54
2021/03/31 05:54:30;;;;;;;5.30;1.00;;;;;;;;;;4963485;28;20369;-54
2021/03/31 05:56:56;;;;;;;3.67;0.90;;;;;;;;;;4963555;28;20065;-52
2021/03/31 05:59:22;;;;;;;3.25;0.88;;;;;;;;;;4962853;28;20146;-55
2021/03/31 06:01:49;;;;;;;3.70;0.98;;;;;;;;;;4962948;28;20116;-54
2021/03/31 06:04:16;;;;;;;3.47;1.30;;;;;;;;;;4995816;28;20077;-56
2021/03/31 06:06:42;;;;;;;4.20;1.00;;;;;;;;;;4963992;28;20045;-53
2021/03/31 06:09:08;;;;;;;3.10;0.90;;;;;;;;;;4965768;28;20046;-54
2021/03/31 06:11:50;;;;;;;2.80;0.90;;;;;;;;;;4962846;28;20154;-55
2021/03/31 06:14:38;;;;;;;5.13;1.25;;;;;;;;;;4964118;28;20046;-54
2021/03/31 06:17:13;;;;;;;4.60;1.10;;;;;;;;;;4963337;28;20543;-56
2021/03/31 06:19:40;;;;;;;3.53;0.95;;;;;;;;;;4962179;28;20467;-54
2021/03/31 06:25:10;;;;;;;4.85;1.13;;;;;;;;;;4961210;28;20101;-54
2021/03/31 06:27:35;;;;;;;3.42;1.00;;;;;;;;;;4961039;28;20049;-55
2021/03/31 06:30:04;;;;;;;2.55;0.90;;;;;;;;;;4960952;28;20031;-54
2021/03/31 06:32:40;;;;;;;3.90;0.90;;;;;;;;;;4962451;28;20130;-56
2021/03/31 06:35:20;;;;;;;4.32;0.80;;;;;;;;;;4961576;28;20684;-53
2021/03/31 06:37:46;;;;;;;4.75;1.00;;;;;;;;;;4964650;28;20046;-53
2021/03/31 06:40:41;;;;;;;4.13;1.00;;;;;;;;;;4964680;28;20047;-56
2021/03/31 06:43:21;;;;;;;3.05;1.02;;;;;;;;;;4961116;28;20081;-56
2021/03/31 06:48:24;;;;;;;4.13;1.10;;;;;;;;;;4960627;28;20051;-56
2021/03/31 06:50:50;;;;;;;3.25;0.93;;;;;;;;;;4960764;28;20046;-56
2021/03/31 06:53:25;;;;;;;3.30;0.90;;;;;;;;;;4960888;28;20050;-55
2021/03/31 06:56:00;;;;;;;4.90;1.10;;;;;;;;;;4951864;28;20050;-55
2021/03/31 06:58:26;;;;;;;5.30;1.20;;;;;;;;;;4962363;28;20052;-55
2021/03/31 07:00:52;;;;;;;3.78;1.00;;;;;;;;;;4961504;28;20796;-54
2021/03/31 07:03:18;;;;;;;5.63;0.90;;;;;;;;;;4964798;28;20049;-52
2021/03/31 07:05:45;;;;;;;3.10;0.90;;;;;;;;;;4961070;28;20079;-52
2021/03/31 07:08:12;;;;;;;2.60;1.00;;;;;;;;;;4962300;28;20043;-53
2021/03/31 07:10:42;;;;;;;2.90;0.80;;;;;;;;;;4960397;28;20066;-54
2021/03/31 07:13:08;;;;;;;3.72;0.82;;;;;;;;;;4960919;28;20129;-56
2021/03/31 07:15:34;;;;;;;3.50;1.00;;;;;;;;;;4962033;28;20448;-56
2021/03/31 07:18:01;;;;;;;3.65;0.80;;;;;;;;;;4961773;28;20043;-54
2021/03/31 07:20:28;;;;;;;5.95;0.90;;;;;;;;;;4975660;28;20039;-56
2021/03/31 07:22:54;;;;;;;3.20;1.00;;;;;;;;;;4961501;28;20086;-54
2021/03/31 07:25:22;;;;;;;3.53;0.85;;;;;;;;;;4960420;28;20812;-55
2021/03/31 07:27:49;;;;;;;4.38;0.90;;;;;;;;;;4960579;28;20043;-54
2021/03/31 07:30:19;;;;;;;2.97;0.80;;;;;;;;;;4962049;28;20043;-57
2021/03/31 07:32:57;;;;;;;3.17;0.85;;;;;;;;;;4961843;28;20038;-56
2021/03/31 07:35:28;;;;;;;3.78;0.80;;;;;;;;;;4961936;28;20442;-56
2021/03/31 07:37:56;;;;;;;2.38;0.75;;;;;;;;;;4992024;28;20101;-53
2021/03/31 07:40:21;;;;;;;2.78;0.80;;;;;;;;;;4960067;28;20043;-55
2021/03/31 07:43:00;;;;;;;4.97;1.13;;;;;;;;;;4956492;28;20069;-56
2021/03/31 07:45:28;;;;;;;3.05;0.90;;;;;;;;;;4959973;28;20625;-54
2021/03/31 07:47:54;;;;;;;5.22;0.90;;;;;;;;;;4960170;28;20047;-55
2021/03/31 07:50:20;;;;;;;2.85;0.80;;;;;;;;;;4961245;28;20157;-56
2021/03/31 07:52:53;;;;;;;3.28;1.00;;;;;;;;;;4962119;28;20039;-55
2021/03/31 07:55:31;;;;;;;4.03;0.90;;;;;;;;;;4959738;28;20078;-55
2021/03/31 07:58:13;;;;;;;3.88;0.85;;;;;;;;;;4961432;28;20046;-53
2021/03/31 08:00:45;;;;;;;2.85;0.90;;;;;;;;;;4961458;28;20172;-53
2021/03/31 08:03:17;;;;;;;3.95;0.80;;;;;;;;;;4962017;28;20051;-55
2021/03/31 08:06:02;;;;;;;2.72;0.90;;;;;;;;;;4960611;28;20055;-54
2021/03/31 08:08:28;;;;;;;4.32;0.98;;;;;;;;;;4960363;28;20050;-55
2021/03/31 08:10:55;;;;;;;3.00;0.95;;;;;;;;;;4959899;28;20050;-56
2021/03/31 08:13:38;;;;;;;3.63;0.82;;;;;;;;;;4960335;28;20047;-53
2021/03/31 08:16:22;;;;;;;4.35;1.00;;;;;;;;;;4961970;28;20034;-55
2021/03/31 08:18:48;;;;;;;3.88;0.90;;;;;;;;;;4959940;28;20070;-54
2021/03/31 08:21:40;;;;;;;3.17;1.00;;;;;;;;;;4960162;28;20534;-53
2021/03/31 08:24:06;;;;;;;5.80;1.00;;;;;;;;;;4960573;28;20098;-53
2021/03/31 08:26:42;;;;;;;3.47;0.90;;;;;;;;;;4960798;28;20057;-53
2021/03/31 08:29:11;;;;;;;3.10;0.73;;;;;;;;;;4961377;28;20043;-52
2021/03/31 08:31:41;;;;;;;4.18;0.98;;;;;;;;;;4961954;28;20057;-53
2021/03/31 08:34:10;;;;;;;2.67;0.98;;;;;;;;;;4962031;28;20042;-54
2021/03/31 08:36:36;;;;;;;3.90;0.95;;;;;;;;;;4959700;28;20043;-54
2021/03/31 08:39:03;;;;;;;3.80;1.00;;;;;;;;;;4962845;28;20089;-56
2021/03/31 08:41:29;;;;;;;4.18;1.17;;;;;;;;;;4959346;28;20039;-54
2021/03/31 08:44:12;;;;;;;3.38;0.98;;;;;;;;;;4962022;28;20047;-54
2021/03/31 08:46:38;;;;;;;4.97;1.10;;;;;;;;;;4961037;28;20050;-56
2021/03/31 08:49:04;;;;;;;3.17;0.95;;;;;;;;;;4961540;28;20546;-55
2021/03/31 08:51:30;;;;;;;3.75;1.00;;;;;;;;;;4960929;28;20035;-53
2021/03/31 08:54:00;;;;;;;3.28;1.17;;;;;;;;;;4963961;28;20034;-53
2021/03/31 08:56:26;;;;;;;3.72;0.90;;;;;;;;;;4964025;28;20610;-56
2021/03/31 08:58:53;;;;;;;4.05;0.90;;;;;;;;;;4964310;28;20054;-52
2021/03/31 09:01:31;;;;;;;2.65;0.80;;;;;;;;;;4961787;28;20039;-53
2021/03/31 09:04:19;;;;;;;5.68;1.20;;;;;;;;;;4965350;28;20066;-54
2021/03/31 09:06:45;;;;;;;2.75;0.90;;;;;;;;;;4965302;28;20051;-53
2021/03/31 09:09:11;;;;;;;5.10;1.02;;;;;;;;;;4966628;28;20071;-53
2021/03/31 09:11:37;;;;;;;2.83;0.90;;;;;;;;;;4964366;28;21612;-55
2021/03/31 09:14:16;;;;;;;5.53;1.25;;;;;;;;;;4966027;28;20404;-55
2021/03/31 09:16:58;;;;;;;2.40;0.93;;;;;;;;;;4994662;28;20050;-55
2021/03/31 09:19:25;;;;;;;3.78;1.00;;;;;;;;;;4962636;28;20170;-55
2021/03/31 09:21:51;;;;;;;2.72;0.80;;;;;;;;;;4963835;28;20039;-55
2021/03/31 09:24:20;;;;;;;3.50;1.15;;;;;;;;;;4995820;28;20050;-55
2021/03/31 09:27:03;;;;;;;4.53;1.20;;;;;;;;;;4962667;28;20061;-54
2021/03/31 09:29:29;;;;;;;4.68;1.10;;;;;;;;;;4963707;28;20062;-53
2021/03/31 09:31:57;;;;;;;2.97;1.35;;;;;;;;;;4994297;28;20542;-55
2021/03/31 09:34:23;;;;;;;3.35;1.00;;;;;;;;;;4961057;28;20554;-53
2021/03/31 09:36:58;;;;;;;4.00;0.90;;;;;;;;;;4962760;28;20118;-54
2021/03/31 09:39:36;;;;;;;3.00;0.85;;;;;;;;;;4962253;28;20042;-53
2021/03/31 09:42:03;;;;;;;3.05;0.82;;;;;;;;;;4964104;28;21032;-54
2021/03/31 09:44:28;;;;;;;2.20;0.80;;;;;;;;;;4964269;28;20967;-53
2021/03/31 09:46:54;;;;;;;3.53;0.82;;;;;;;;;;4964744;28;20108;-54
2021/03/31 09:49:20;;;;;;;3.08;0.88;;;;;;;;;;4960252;28;20365;-54
2021/03/31 09:51:47;;;;;;;3.35;1.10;;;;;;;;;;4964041;28;20041;-52
2021/03/31 09:54:13;;;;;;;3.33;0.80;;;;;;;;;;4963587;28;20758;-54
2021/03/31 09:56:39;;;;;;;4.45;1.00;;;;;;;;;;4960991;28;20046;-55
2021/03/31 09:59:04;;;;;;;3.25;1.00;;;;;;;;;;4963055;28;20043;-57
2021/03/31 10:01:30;;;;;;;3.53;1.00;;;;;;;;;;4960754;28;20041;-52
2021/03/31 10:03:58;;;;;;;3.55;0.88;;;;;;;;;;4961885;28;20372;-53
2021/03/31 10:06:26;;;;;;;4.07;0.85;;;;;;;;;;4961223;28;20142;-55
2021/03/31 10:08:52;;;;;;;2.90;0.80;;;;;;;;;;4962331;28;20045;-56
2021/03/31 10:11:25;;;;;;;3.30;0.68;;;;;;;;;;4959852;28;20110;-55
2021/03/31 10:13:51;;;;;;;3.50;1.08;;;;;;;;;;4961344;28;20041;-53
2021/03/31 10:16:16;;;;;;;3.90;1.17;;;;;;;;;;4961001;28;20319;-52
2021/03/31 10:18:42;;;;;;;3.45;1.05;;;;;;;;;;4961962;28;20046;-54
2021/03/31 10:21:08;;;;;;;3.25;0.63;;;;;;;;;;4961669;28;20510;-53
2021/03/31 10:23:35;;;;;;;2.75;0.88;;;;;;;;;;4960268;28;20061;-55
2021/03/31 10:26:19;;;;;;;4.18;1.00;;;;;;;;;;4960377;28;20137;-55
2021/03/31 10:28:45;;;;;;;2.75;0.88;;;;;;;;;;4960477;28;20058;-54
2021/03/31 10:31:20;;;;;;;2.65;0.70;;;;;;;;;;4962571;28;20385;-51
2021/03/31 10:33:46;;;;;;;4.05;0.80;;;;;;;;;;4959981;28;20451;-55
2021/03/31 10:36:30;;;;;;;3.10;1.08;;;;;;;;;;4960518;28;20035;-55
2021/03/31 10:39:31;;;;;;;2.53;0.70;;;;;;;;;;4959659;28;20046;-54
2021/03/31 10:47:30;;;;;;;4.18;0.90;;;;;;;;;;4958250;28;20451;-52
2021/03/31 10:49:58;;;;;;;2.13;0.70;;;;;;;;;;4961661;28;20108;-54
2021/03/31 10:52:27;;;;;;;3.97;0.80;;;;;;;;;;4960065;28;20051;-54
2021/03/31 10:54:55;;;;;;;3.15;0.75;;;;;;;;;;4961352;28;20069;-50
2021/03/31 10:57:21;;;;;;;6.50;0.90;;;;;;;;;;4961486;28;20141;-50
2021/03/31 10:59:46;;;;;;;4.50;0.95;;;;;;;;;;4961748;28;20049;-55
2021/03/31 11:02:12;;;;;;;2.60;0.80;;;;;;;;;;4961231;28;20048;-55
2021/03/31 11:04:38;;;;;;;2.75;0.77;;;;;;;;;;4960439;28;20074;-51
2021/03/31 11:07:04;;;;;;;2.97;0.70;;;;;;;;;;4961576;28;20060;-54
2021/03/31 11:09:29;;;;;;;3.78;0.82;;;;;;;;;;4959783;28;20064;-51
2021/03/31 11:11:58;;;;;;;2.15;0.63;;;;;;;;;;4960959;28;20492;-54
2021/03/31 11:14:24;;;;;;;3.08;0.73;;;;;;;;;;4962167;28;20043;-52
2021/03/31 11:16:57;;;;;;;3.03;0.90;;;;;;;;;;4960199;28;20896;-55
2021/03/31 11:19:51;;;;;;;4.57;0.77;;;;;;;;;;4960476;28;20050;-54
2021/03/31 11:27:45;;;;;;;3.15;0.98;;;;;;;;;;4959478;28;20096;-55
2021/03/31 11:30:11;;;;;;;3.55;0.90;;;;;;;;;;4959983;28;20053;-52
2021/03/31 11:32:37;;;;;;;4.72;1.10;;;;;;;;;;4961318;28;20408;-56
2021/03/31 11:35:04;;;;;;;2.50;0.77;;;;;;;;;;4960096;28;20169;-55
2021/03/31 11:37:30;;;;;;;4.85;0.90;;;;;;;;;;4960247;28;20092;-54
2021/03/31 11:39:55;;;;;;;3.88;0.88;;;;;;;;;;4960422;28;20043;-55
2021/03/31 11:42:22;;;;;;;4.47;1.00;;;;;;;;;;4961128;28;20038;-56
2021/03/31 11:44:47;;;;;;;2.28;0.73;;;;;;;;;;4961194;28;20066;-55
2021/03/31 11:47:14;;;;;;;5.43;0.90;;;;;;;;;;4960708;28;20051;-51
2021/03/31 11:49:40;;;;;;;3.42;0.80;;;;;;;;;;4959749;28;20035;-55
2021/03/31 11:52:06;;;;;;;2.45;0.77;;;;;;;;;;4961742;28;20034;-55
2021/03/31 11:54:32;;;;;;;6.40;0.90;;;;;;;;;;4959320;28;20093;-53
2021/03/31 11:56:58;;;;;;;3.78;1.00;;;;;;;;;;4960737;28;20100;-54
2021/03/31 11:59:24;;;;;;;2.70;0.75;;;;;;;;;;4959669;28;20043;-53
2021/03/31 12:01:49;;;;;;;2.42;0.75;;;;;;;;;;4962230;28;20406;-56
2021/03/31 12:04:18;;;;;;;3.15;0.82;;;;;;;;;;4960793;28;20553;-51
2021/03/31 12:06:44;;;;;;;10.40;1.08;;;;;;;;;;4959862;28;20054;-53
2021/03/31 12:09:11;;;;;;;6.30;1.00;;;;;;;;;;4958872;28;20074;-54
2021/03/31 12:11:37;;;;;;;2.55;0.68;;;;;;;;;;4959466;28;20042;-55
2021/03/31 12:14:03;;;;;;;5.22;0.70;;;;;;;;;;4960534;28;22164;-54
2021/03/31 12:16:29;;;;;;;4.63;0.80;;;;;;;;;;4958958;28;20047;-53
2021/03/31 12:18:54;;;;;;;5.93;1.00;;;;;;;;;;4959622;28;20053;-55
2021/03/31 12:21:20;;;;;;;3.92;0.93;;;;;;;;;;4960001;28;20038;-51
2021/03/31 12:23:46;;;;;;;2.85;0.90;;;;;;;;;;4960666;28;20038;-55
2021/03/31 12:26:13;;;;;;;5.40;1.15;;;;;;;;;;4959805;28;20245;-51
2021/03/31 12:28:39;;;;;;;5.35;1.02;;;;;;;;;;4962826;28;20043;-55
2021/03/31 12:31:07;;;;;;;5.93;1.08;;;;;;;;;;4964183;28;20081;-53
2021/03/31 12:33:34;;;;;;;5.45;0.93;;;;;;;;;;4962210;28;20046;-52
2021/03/31 12:36:00;;;;;;;5.00;0.80;;;;;;;;;;4963975;28;21122;-54
2021/03/31 12:38:26;;;;;;;3.28;0.80;;;;;;;;;;4963573;28;20034;-54
2021/03/31 12:40:52;;;;;;;6.47;1.40;;;;;;;;;;4964061;28;20034;-54
2021/03/31 12:43:19;;;;;;;6.32;1.20;;;;;;;;;;4963318;28;20136;-54
2021/03/31 12:45:45;;;;;;;7.70;0.82;;;;;;;;;;4964117;28;20047;-53
2021/03/31 12:48:11;;;;;;;2.85;0.75;;;;;;;;;;4963772;28;20487;-53
2021/03/31 12:50:38;;;;;;;4.28;0.80;;;;;;;;;;4962921;28;21566;-52
2021/03/31 12:53:27;;;;;;;7.38;2.78;;;;;;;;;;4960423;28;20034;-53
2021/03/31 12:55:50;;;;;;;8.88;1.10;;;;;;;;;;4954684;28;20050;-55
2021/03/31 12:58:18;;;;;;;9.40;1.05;;;;;;;;;;4956421;28;20053;-52
2021/03/31 13:00:46;;;;;;;9.00;0.95;;;;;;;;;;4960936;28;20043;-55
2021/03/31 13:03:12;;;;;;;5.22;1.40;;;;;;;;;;4963662;28;20086;-54
2021/03/31 13:05:39;;;;;;;11.65;2.15;;;;;;;;;;4961487;28;20123;-56
2021/03/31 13:08:13;;;;;;;12.52;2.03;;;;;;;;;;4962087;28;20031;-55
2021/03/31 13:10:41;;;;;;;6.80;1.48;;;;;;;;;;4989746;28;20444;-56
2021/03/31 13:13:24;;;;;;;6.07;1.40;;;;;;;;;;4959129;28;20035;-54
2021/03/31 13:24:16;;;;;;;9.55;1.98;;;;;;;;;;4960139;28;20049;-56
2021/03/31 13:32:31;;;;;;;14.60;1.63;;;;;;;;;;4960804;28;20053;-52
2021/03/31 13:35:05;;;;;;;;;;;;;;;;;;4964127;28;20046;-51
2021/03/31 13:37:44;;;;;;;11.00;1.52;;;;;;;;;;4962791;28;19914;-54
2021/03/31 13:40:11;;;;;;;10.02;1.42;;;;;;;;;;4962181;28;20043;-53
2021/03/31 13:42:37;;;;;;;11.52;1.83;;;;;;;;;;4963666;28;20118;-54
2021/03/31 13:45:07;;;;;;;13.82;1.80;;;;;;;;;;4962295;28;20133;-55
2021/03/31 13:47:41;;;;;;;17.90;2.38;;;;;;;;;;4961619;28;20066;-52
2021/03/31 13:50:07;;;;;;;13.43;1.67;;;;;;;;;;4962230;28;20085;-54
2021/03/31 13:52:35;;;;;;;9.20;1.70;;;;;;;;;;4961903;28;20042;-54
2021/03/31 13:55:04;;;;;;;8.43;1.48;;;;;;;;;;4960770;28;20046;-55
2021/03/31 13:57:34;;;;;;;8.10;1.50;;;;;;;;;;4962698;28;20591;-55
2021/03/31 14:00:00;;;;;;;11.68;1.55;;;;;;;;;;4955370;28;20050;-55
2021/03/31 14:02:26;;;;;;;12.07;1.52;;;;;;;;;;4955969;28;20039;-54
2021/03/31 14:04:52;;;;;;;7.05;1.52;;;;;;;;;;4955857;28;20065;-55
2021/03/31 14:07:19;;;;;;;5.68;1.52;;;;;;;;;;4954816;28;20053;-54
2021/03/31 14:09:45;;;;;;;6.88;1.42;;;;;;;;;;4954995;28;20181;-56
2021/03/31 14:12:11;;;;;;;4.93;1.25;;;;;;;;;;4955398;28;20827;-55
2021/03/31 14:14:37;;;;;;;6.00;1.42;;;;;;;;;;4955800;28;20915;-54
2021/03/31 14:17:04;;;;;;;6.90;1.38;;;;;;;;;;4954933;28;20226;-51
2021/03/31 14:19:35;;;;;;;10.50;1.52;;;;;;;;;;4954205;28;20041;-55
2021/03/31 14:22:01;;;;;;;9.73;1.33;;;;;;;;;;4985960;28;20166;-54
2021/03/31 14:24:27;;;;;;;12.40;1.67;;;;;;;;;;4985260;28;20551;-52
2021/03/31 14:26:53;;;;;;;11.75;1.35;;;;;;;;;;4955798;28;20061;-52
2021/03/31 14:29:19;;;;;;;10.63;1.40;;;;;;;;;;4954458;28;20042;-55
2021/03/31 14:31:45;;;;;;;7.18;1.30;;;;;;;;;;4955534;28;20033;-53
2021/03/31 14:34:10;;;;;;;5.95;1.10;;;;;;;;;;4986829;28;20141;-54
2021/03/31 14:36:36;;;;;;;9.18;1.40;;;;;;;;;;4954767;28;20112;-55
2021/03/31 14:39:11;;;;;;;8.40;1.30;;;;;;;;;;4954292;28;20494;-54
2021/03/31 14:41:37;;;;;;;12.27;1.67;;;;;;;;;;4954102;28;20146;-54
2021/03/31 14:44:03;;;;;;;6.93;1.63;;;;;;;;;;4953151;28;20098;-54
2021/03/31 14:46:29;;;;;;;8.82;1.75;;;;;;;;;;4954803;28;20094;-55
2021/03/31 14:48:55;;;;;;;9.38;1.30;;;;;;;;;;4954491;28;20188;-54
2021/03/31 14:51:24;;;;;;;8.55;1.25;;;;;;;;;;4954748;28;20591;-55
2021/03/31 14:59:52;;;;;;;5.00;1.17;;;;;;;;;;4954390;28;20058;-56
2021/03/31 15:02:11;;;;;;;7.68;1.55;;;;;;;;;;4939167;28;20445;-55
2021/03/31 15:04:38;;;;;;;11.15;1.40;;;;;;;;;;4934919;28;20053;-57
2021/03/31 15:07:04;;;;;;;14.73;1.20;;;;;;;;;;4934048;28;20133;-56
2021/03/31 15:09:30;;;;;;;10.63;1.52;;;;;;;;;;4933494;28;20547;-55
2021/03/31 15:11:57;;;;;;;7.28;1.13;;;;;;;;;;4949002;28;20042;-54
2021/03/31 15:14:23;;;;;;;8.48;1.42;;;;;;;;;;4954538;28;20440;-57
2021/03/31 15:16:49;;;;;;;8.10;1.30;;;;;;;;;;4954949;28;20053;-55
2021/03/31 15:19:22;;;;;;;4.85;1.30;;;;;;;;;;4954327;28;20093;-55
2021/03/31 15:24:43;;;;;;;8.02;1.35;;;;;;;;;;4945754;28;20443;-56
2021/03/31 15:27:10;;;;;;;6.65;1.10;;;;;;;;;;4954023;28;20416;-50
2021/03/31 15:29:36;;;;;;;10.77;2.80;;;;;;;;;;4983413;28;20042;-55